sensor_id;sensor_type;location;lat;lon;timestamp;temperature;humidity
6930;DHT22;3504;52.616;13.238;2023-08-24T00:04:02;16.99;77.16
6930;DHT22;3504;52.616;13.238;2023-08-24T00:09:03;16.92;77.61
6930;DHT22;3504;52.616;13.238;2023-08-24T00:14:05;16.86;77.67
6930;DHT22;3504;52.616;13.238;2023-08-24T00:19:05;16.80;77.78
6930;DHT22;3504;52.616;13.238;2023-08-24T00:24:07;16.76;77.98
6930;DHT22;3504;52.616;13.238;2023-08-24T00:29:07;16.74;77.10
6930;DHT22;3504;52.616;13.238;2023-08-24T00:34:08;16.72;77.84
6930;DHT22;3504;52.616;13.238;2023-08-24T00:39:08;16.64;77.91
6930;DHT22;3504;52.616;13.238;2023-08-24T00:44:11;16.56;78.20
6930;DHT22;3504;52.616;13.238;2023-08-24T00:49:12;16.51;78.19
6930;DHT22;3504;52.616;13.238;2023-08-24T00:54:13;16.48;77.72
6930;DHT22;3504;52.616;13.238;2023-08-24T00:59:13;16.52;77.49
6930;DHT22;3504;52.616;13.238;2023-08-24T01:04:14;16.53;78.36
6930;DHT22;3504;52.616;13.238;2023-08-24T01:09:14;16.59;77.83
6930;DHT22;3504;52.616;13.238;2023-08-24T01:19:46;16.69;78.06
6930;DHT22;3504;52.616;13.238;2023-08-24T01:25:06;16.70;79.38
6930;DHT22;3504;52.616;13.238;2023-08-24T01:30:08;16.74;79.69
6930;DHT22;3504;52.616;13.238;2023-08-24T01:35:11;16.76;79.11
6930;DHT22;3504;52.616;13.238;2023-08-24T01:40:26;16.77;78.65
6930;DHT22;3504;52.616;13.238;2023-08-24T01:45:31;16.84;79.42
6930;DHT22;3504;52.616;13.238;2023-08-24T01:50:33;16.86;79.42
6930;DHT22;3504;52.616;13.238;2023-08-24T01:55:34;16.90;79.04
6930;DHT22;3504;52.616;13.238;2023-08-24T02:00:34;16.90;78.71
6930;DHT22;3504;52.616;13.238;2023-08-24T02:05:35;16.94;78.97
6930;DHT22;3504;52.616;13.238;2023-08-24T02:10:35;16.97;78.74
6930;DHT22;3504;52.616;13.238;2023-08-24T02:15:38;17.04;78.84
6930;DHT22;3504;52.616;13.238;2023-08-24T02:20:41;17.07;78.98
6930;DHT22;3504;52.616;13.238;2023-08-24T02:25:42;17.11;79.48
6930;DHT22;3504;52.616;13.238;2023-08-24T02:30:43;17.14;79.42
6930;DHT22;3504;52.616;13.238;2023-08-24T02:35:47;17.18;79.87
6930;DHT22;3504;52.616;13.238;2023-08-24T02:40:47;17.18;80.45
6930;DHT22;3504;52.616;13.238;2023-08-24T02:45:48;17.23;80.27
6930;DHT22;3504;52.616;13.238;2023-08-24T02:50:49;17.21;80.41
6930;DHT22;3504;52.616;13.238;2023-08-24T02:55:49;17.28;80.23
6930;DHT22;3504;52.616;13.238;2023-08-24T03:00:50;17.34;79.88
6930;DHT22;3504;52.616;13.238;2023-08-24T03:06:02;17.35;79.71
6930;DHT22;3504;52.616;13.238;2023-08-24T03:11:04;17.38;79.80
6930;DHT22;3504;52.616;13.238;2023-08-24T03:16:05;17.41;80.09
6930;DHT22;3504;52.616;13.238;2023-08-24T03:21:06;17.44;79.73
6930;DHT22;3504;52.616;13.238;2023-08-24T03:26:08;17.46;80.14
6930;DHT22;3504;52.616;13.238;2023-08-24T03:31:09;17.51;80.02
6930;DHT22;3504;52.616;13.238;2023-08-24T03:36:09;17.52;79.59
6930;DHT22;3504;52.616;13.238;2023-08-24T03:41:10;17.58;79.81
6930;DHT22;3504;52.616;13.238;2023-08-24T03:46:11;17.58;79.59
6930;DHT22;3504;52.616;13.238;2023-08-24T03:51:14;17.58;79.69
6930;DHT22;3504;52.616;13.238;2023-08-24T03:56:15;17.64;80.41
6930;DHT22;3504;52.616;13.238;2023-08-24T04:01:16;17.62;80.19
6930;DHT22;3504;52.616;13.238;2023-08-24T04:06:18;17.66;80.36
6930;DHT22;3504;52.616;13.238;2023-08-24T04:11:19;17.72;80.49
6930;DHT22;3504;52.616;13.238;2023-08-24T04:16:20;17.71;80.94
6930;DHT22;3504;52.616;13.238;2023-08-24T04:21:21;17.75;80.44
6930;DHT22;3504;52.616;13.238;2023-08-24T04:26:23;17.81;80.43
6930;DHT22;3504;52.616;13.238;2023-08-24T04:31:23;17.81;80.61
6930;DHT22;3504;52.616;13.238;2023-08-24T04:36:23;17.86;80.50
6930;DHT22;3504;52.616;13.238;2023-08-24T04:41:24;17.95;80.59
6930;DHT22;3504;52.616;13.238;2023-08-24T04:46:24;17.99;80.40
6930;DHT22;3504;52.616;13.238;2023-08-24T04:51:29;18.06;80.86
6930;DHT22;3504;52.616;13.238;2023-08-24T04:56:30;18.13;80.83
6930;DHT22;3504;52.616;13.238;2023-08-24T05:01:30;18.20;80.92
6930;DHT22;3504;52.616;13.238;2023-08-24T05:06:32;18.28;80.84
6930;DHT22;3504;52.616;13.238;2023-08-24T05:11:32;18.36;80.29
6930;DHT22;3504;52.616;13.238;2023-08-24T05:16:33;18.50;80.30
6930;DHT22;3504;52.616;13.238;2023-08-24T05:21:33;18.64;80.19
6930;DHT22;3504;52.616;13.238;2023-08-24T05:26:34;18.78;79.55
6930;DHT22;3504;52.616;13.238;2023-08-24T05:31:34;18.96;78.25
6930;DHT22;3504;52.616;13.238;2023-08-24T05:36:35;19.13;77.21
6930;DHT22;3504;52.616;13.238;2023-08-24T05:41:35;19.29;77.31
6930;DHT22;3504;52.616;13.238;2023-08-24T05:46:37;19.50;77.06
6930;DHT22;3504;52.616;13.238;2023-08-24T05:51:37;19.71;77.19
6930;DHT22;3504;52.616;13.238;2023-08-24T05:56:38;20.12;76.02
6930;DHT22;3504;52.616;13.238;2023-08-24T06:01:38;20.46;73.84
6930;DHT22;3504;52.616;13.238;2023-08-24T06:06:39;20.83;73.08
6930;DHT22;3504;52.616;13.238;2023-08-24T06:11:39;21.11;71.86
6930;DHT22;3504;52.616;13.238;2023-08-24T06:16:40;21.27;70.04
6930;DHT22;3504;52.616;13.238;2023-08-24T06:21:41;21.40;69.03
6930;DHT22;3504;52.616;13.238;2023-08-24T06:26:41;21.50;68.78
6930;DHT22;3504;52.616;13.238;2023-08-24T06:31:42;21.68;68.19
6930;DHT22;3504;52.616;13.238;2023-08-24T06:36:42;21.74;66.85
6930;DHT22;3504;52.616;13.238;2023-08-24T06:41:43;21.86;67.39
6930;DHT22;3504;52.616;13.238;2023-08-24T06:46:43;22.01;67.32
6930;DHT22;3504;52.616;13.238;2023-08-24T06:51:44;22.06;66.64
6930;DHT22;3504;52.616;13.238;2023-08-24T06:56:44;22.04;66.76
6930;DHT22;3504;52.616;13.238;2023-08-24T07:01:45;22.02;66.92
6930;DHT22;3504;52.616;13.238;2023-08-24T07:06:47;22.08;66.76
6930;DHT22;3504;52.616;13.238;2023-08-24T07:11:49;22.10;66.08
6930;DHT22;3504;52.616;13.238;2023-08-24T07:16:49;22.32;66.10
6930;DHT22;3504;52.616;13.238;2023-08-24T07:21:50;22.44;65.66
6930;DHT22;3504;52.616;13.238;2023-08-24T07:26:50;22.61;63.49
6930;DHT22;3504;52.616;13.238;2023-08-24T07:31:51;22.77;63.92
6930;DHT22;3504;52.616;13.238;2023-08-24T07:36:52;22.86;63.69
6930;DHT22;3504;52.616;13.238;2023-08-24T07:41:53;23.07;65.15
6930;DHT22;3504;52.616;13.238;2023-08-24T07:46:53;23.39;63.57
6930;DHT22;3504;52.616;13.238;2023-08-24T07:51:55;23.80;63.25
6930;DHT22;3504;52.616;13.238;2023-08-24T07:56:57;23.90;62.40
6930;DHT22;3504;52.616;13.238;2023-08-24T08:01:58;24.04;61.66
6930;DHT22;3504;52.616;13.238;2023-08-24T08:06:58;24.20;61.16
6930;DHT22;3504;52.616;13.238;2023-08-24T08:11:58;24.31;60.67
6930;DHT22;3504;52.616;13.238;2023-08-24T08:16:59;24.31;58.25
6930;DHT22;3504;52.616;13.238;2023-08-24T08:21:59;24.18;60.55
6930;DHT22;3504;52.616;13.238;2023-08-24T08:27:00;24.11;60.19
6930;DHT22;3504;52.616;13.238;2023-08-24T08:32:01;24.00;61.84
6930;DHT22;3504;52.616;13.238;2023-08-24T08:37:01;23.85;61.11
6930;DHT22;3504;52.616;13.238;2023-08-24T08:42:02;23.78;61.37
6930;DHT22;3504;52.616;13.238;2023-08-24T08:47:03;23.75;60.90
6930;DHT22;3504;52.616;13.238;2023-08-24T08:52:07;23.69;61.54
6930;DHT22;3504;52.616;13.238;2023-08-24T08:57:08;23.97;61.54
6930;DHT22;3504;52.616;13.238;2023-08-24T09:02:14;24.71;58.94
6930;DHT22;3504;52.616;13.238;2023-08-24T09:07:16;24.98;59.38
6930;DHT22;3504;52.616;13.238;2023-08-24T09:12:17;25.02;58.17
6930;DHT22;3504;52.616;13.238;2023-08-24T09:17:21;25.11;58.09
6930;DHT22;3504;52.616;13.238;2023-08-24T09:22:22;25.47;56.57
6930;DHT22;3504;52.616;13.238;2023-08-24T09:27:22;25.78;54.33
6930;DHT22;3504;52.616;13.238;2023-08-24T09:32:24;26.09;53.31
6930;DHT22;3504;52.616;13.238;2023-08-24T09:37:32;26.55;53.56
6930;DHT22;3504;52.616;13.238;2023-08-24T09:42:41;26.82;51.95
6930;DHT22;3504;52.616;13.238;2023-08-24T09:47:49;26.97;50.67
6930;DHT22;3504;52.616;13.238;2023-08-24T09:52:53;27.34;51.21
6930;DHT22;3504;52.616;13.238;2023-08-24T09:57:57;27.61;46.33
6930;DHT22;3504;52.616;13.238;2023-08-24T10:02:58;27.59;49.22
6930;DHT22;3504;52.616;13.238;2023-08-24T10:08:01;27.85;49.79
6930;DHT22;3504;52.616;13.238;2023-08-24T10:13:18;28.18;49.49
6930;DHT22;3504;52.616;13.238;2023-08-24T10:18:22;28.32;45.73
6930;DHT22;3504;52.616;13.238;2023-08-24T10:23:24;28.64;44.80
6930;DHT22;3504;52.616;13.238;2023-08-24T10:28:27;28.87;45.69
6930;DHT22;3504;52.616;13.238;2023-08-24T10:33:29;28.97;47.37
6930;DHT22;3504;52.616;13.238;2023-08-24T10:38:30;28.94;46.24
6930;DHT22;3504;52.616;13.238;2023-08-24T10:43:37;28.94;45.59
6930;DHT22;3504;52.616;13.238;2023-08-24T10:53:44;29.18;43.76
6930;DHT22;3504;52.616;13.238;2023-08-24T10:58:46;29.41;46.06
6930;DHT22;3504;52.616;13.238;2023-08-24T11:03:56;29.59;42.61
6930;DHT22;3504;52.616;13.238;2023-08-24T11:09:08;29.69;42.61
6930;DHT22;3504;52.616;13.238;2023-08-24T11:14:19;29.85;43.82
6930;DHT22;3504;52.616;13.238;2023-08-24T11:19:22;29.69;44.61
6930;DHT22;3504;52.616;13.238;2023-08-24T11:24:24;29.62;42.85
6930;DHT22;3504;52.616;13.238;2023-08-24T11:29:25;29.46;43.09
6930;DHT22;3504;52.616;13.238;2023-08-24T11:34:26;29.60;43.84
6930;DHT22;3504;52.616;13.238;2023-08-24T11:39:26;29.52;44.86
6930;DHT22;3504;52.616;13.238;2023-08-24T11:44:48;29.67;44.28
6930;DHT22;3504;52.616;13.238;2023-08-24T11:49:48;29.55;44.15
6930;DHT22;3504;52.616;13.238;2023-08-24T11:54:51;29.53;44.21
6930;DHT22;3504;52.616;13.238;2023-08-24T11:59:52;29.56;44.26
6930;DHT22;3504;52.616;13.238;2023-08-24T12:04:52;29.53;44.11
6930;DHT22;3504;52.616;13.238;2023-08-24T12:09:53;29.53;44.52
6930;DHT22;3504;52.616;13.238;2023-08-24T12:14:55;29.53;43.81
6930;DHT22;3504;52.616;13.238;2023-08-24T12:20:00;29.29;44.47
6930;DHT22;3504;52.616;13.238;2023-08-24T12:25:00;29.27;44.38
6930;DHT22;3504;52.616;13.238;2023-08-24T12:30:02;29.21;45.66
6930;DHT22;3504;52.616;13.238;2023-08-24T12:35:03;29.15;44.08
6930;DHT22;3504;52.616;13.238;2023-08-24T12:40:04;29.21;45.39
6930;DHT22;3504;52.616;13.238;2023-08-24T12:45:08;29.19;44.61
6930;DHT22;3504;52.616;13.238;2023-08-24T12:50:09;29.25;45.37
6930;DHT22;3504;52.616;13.238;2023-08-24T12:55:09;29.04;45.77
6930;DHT22;3504;52.616;13.238;2023-08-24T13:00:10;29.05;46.50
6930;DHT22;3504;52.616;13.238;2023-08-24T13:05:11;29.15;45.86
6930;DHT22;3504;52.616;13.238;2023-08-24T13:10:11;29.08;44.61
6930;DHT22;3504;52.616;13.238;2023-08-24T13:15:13;29.27;45.33
6930;DHT22;3504;52.616;13.238;2023-08-24T13:20:13;29.24;44.37
6930;DHT22;3504;52.616;13.238;2023-08-24T13:25:14;29.21;44.38
6930;DHT22;3504;52.616;13.238;2023-08-24T13:30:14;29.38;44.20
6930;DHT22;3504;52.616;13.238;2023-08-24T13:35:15;29.37;43.63
6930;DHT22;3504;52.616;13.238;2023-08-24T13:40:15;29.38;44.77
6930;DHT22;3504;52.616;13.238;2023-08-24T13:45:16;29.18;44.64
6930;DHT22;3504;52.616;13.238;2023-08-24T13:50:16;29.27;44.31
6930;DHT22;3504;52.616;13.238;2023-08-24T13:55:17;29.24;45.02
6930;DHT22;3504;52.616;13.238;2023-08-24T14:00:18;29.10;43.09
6930;DHT22;3504;52.616;13.238;2023-08-24T14:05:18;28.97;44.33
6930;DHT22;3504;52.616;13.238;2023-08-24T14:10:19;28.83;44.74
6930;DHT22;3504;52.616;13.238;2023-08-24T14:15:19;28.74;45.19
6930;DHT22;3504;52.616;13.238;2023-08-24T14:20:20;28.71;45.13
6930;DHT22;3504;52.616;13.238;2023-08-24T14:25:20;28.78;46.29
6930;DHT22;3504;52.616;13.238;2023-08-24T14:30:21;28.78;44.77
6930;DHT22;3504;52.616;13.238;2023-08-24T14:35:22;28.67;44.75
6930;DHT22;3504;52.616;13.238;2023-08-24T14:40:22;28.66;46.21
6930;DHT22;3504;52.616;13.238;2023-08-24T14:45:23;28.69;45.77
6930;DHT22;3504;52.616;13.238;2023-08-24T14:50:23;28.78;45.74
6930;DHT22;3504;52.616;13.238;2023-08-24T14:55:24;28.78;45.15
6930;DHT22;3504;52.616;13.238;2023-08-24T15:00:24;28.73;45.53
6930;DHT22;3504;52.616;13.238;2023-08-24T15:05:25;28.70;46.03
6930;DHT22;3504;52.616;13.238;2023-08-24T15:10:26;28.78;44.70
6930;DHT22;3504;52.616;13.238;2023-08-24T15:15:26;28.77;44.66
6930;DHT22;3504;52.616;13.238;2023-08-24T15:20:27;28.69;44.27
6930;DHT22;3504;52.616;13.238;2023-08-24T15:25:27;28.67;44.67
6930;DHT22;3504;52.616;13.238;2023-08-24T15:30:28;28.70;44.42
6930;DHT22;3504;52.616;13.238;2023-08-24T15:35:28;28.73;45.97
6930;DHT22;3504;52.616;13.238;2023-08-24T15:40:30;28.70;45.61
6930;DHT22;3504;52.616;13.238;2023-08-24T15:45:35;28.51;46.31
6930;DHT22;3504;52.616;13.238;2023-08-24T15:50:35;28.32;46.74
6930;DHT22;3504;52.616;13.238;2023-08-24T15:55:36;28.20;46.94
6930;DHT22;3504;52.616;13.238;2023-08-24T16:00:39;28.09;46.78
6930;DHT22;3504;52.616;13.238;2023-08-24T16:05:40;27.98;46.69
6930;DHT22;3504;52.616;13.238;2023-08-24T16:10:41;27.93;48.10
6930;DHT22;3504;52.616;13.238;2023-08-24T16:15:42;27.92;48.48
6930;DHT22;3504;52.616;13.238;2023-08-24T16:20:43;27.89;48.49
6930;DHT22;3504;52.616;13.238;2023-08-24T16:25:45;27.85;49.34
6930;DHT22;3504;52.616;13.238;2023-08-24T16:30:47;27.77;49.80
6930;DHT22;3504;52.616;13.238;2023-08-24T16:35:48;27.71;49.12
6930;DHT22;3504;52.616;13.238;2023-08-24T16:40:48;27.57;49.86
6930;DHT22;3504;52.616;13.238;2023-08-24T16:45:49;27.48;50.71
6930;DHT22;3504;52.616;13.238;2023-08-24T16:50:51;27.40;51.46
6930;DHT22;3504;52.616;13.238;2023-08-24T16:55:55;27.30;51.29
6930;DHT22;3504;52.616;13.238;2023-08-24T17:01:04;27.21;50.62
6930;DHT22;3504;52.616;13.238;2023-08-24T17:06:05;27.11;51.27
6930;DHT22;3504;52.616;13.238;2023-08-24T17:11:06;27.02;52.38
6930;DHT22;3504;52.616;13.238;2023-08-24T17:16:06;26.89;54.16
6930;DHT22;3504;52.616;13.238;2023-08-24T17:21:07;26.78;55.18
6930;DHT22;3504;52.616;13.238;2023-08-24T17:26:08;26.65;55.72
6930;DHT22;3504;52.616;13.238;2023-08-24T17:31:09;26.49;55.78
6930;DHT22;3504;52.616;13.238;2023-08-24T17:36:09;26.28;57.07
6930;DHT22;3504;52.616;13.238;2023-08-24T17:41:10;26.17;57.82
6930;DHT22;3504;52.616;13.238;2023-08-24T17:46:10;26.04;58.50
6930;DHT22;3504;52.616;13.238;2023-08-24T17:51:11;25.88;59.54
6930;DHT22;3504;52.616;13.238;2023-08-24T17:56:11;25.70;60.17
6930;DHT22;3504;52.616;13.238;2023-08-24T18:01:13;25.53;60.95
6930;DHT22;3504;52.616;13.238;2023-08-24T18:06:13;25.36;60.99
6930;DHT22;3504;52.616;13.238;2023-08-24T18:11:14;25.22;60.18
6930;DHT22;3504;52.616;13.238;2023-08-24T18:16:14;25.09;61.44
6930;DHT22;3504;52.616;13.238;2023-08-24T18:21:15;24.96;61.56
6930;DHT22;3504;52.616;13.238;2023-08-24T18:26:15;24.83;62.07
6930;DHT22;3504;52.616;13.238;2023-08-24T18:31:16;24.62;62.77
6930;DHT22;3504;52.616;13.238;2023-08-24T18:36:17;24.40;62.70
6930;DHT22;3504;52.616;13.238;2023-08-24T18:41:17;24.34;63.05
6930;DHT22;3504;52.616;13.238;2023-08-24T18:46:18;24.21;63.36
6930;DHT22;3504;52.616;13.238;2023-08-24T18:51:18;24.00;63.83
6930;DHT22;3504;52.616;13.238;2023-08-24T18:56:19;23.96;64.17
6930;DHT22;3504;52.616;13.238;2023-08-24T19:01:19;23.85;64.84
6930;DHT22;3504;52.616;13.238;2023-08-24T19:06:20;23.75;64.48
6930;DHT22;3504;52.616;13.238;2023-08-24T19:11:20;23.48;64.72
6930;DHT22;3504;52.616;13.238;2023-08-24T19:16:21;23.43;65.03
6930;DHT22;3504;52.616;13.238;2023-08-24T19:21:21;23.35;65.69
6930;DHT22;3504;52.616;13.238;2023-08-24T19:26:26;23.28;65.39
6930;DHT22;3504;52.616;13.238;2023-08-24T19:31:26;23.24;66.47
6930;DHT22;3504;52.616;13.238;2023-08-24T19:36:27;23.14;66.82
6930;DHT22;3504;52.616;13.238;2023-08-24T19:41:27;23.04;67.36
6930;DHT22;3504;52.616;13.238;2023-08-24T19:46:28;22.94;68.46
6930;DHT22;3504;52.616;13.238;2023-08-24T19:51:29;22.87;67.99
6930;DHT22;3504;52.616;13.238;2023-08-24T19:56:29;22.78;68.61
6930;DHT22;3504;52.616;13.238;2023-08-24T20:01:30;22.80;68.12
6930;DHT22;3504;52.616;13.238;2023-08-24T20:06:30;22.74;68.19
6930;DHT22;3504;52.616;13.238;2023-08-24T20:11:31;22.71;68.83
6930;DHT22;3504;52.616;13.238;2023-08-24T20:16:31;22.67;68.56
6930;DHT22;3504;52.616;13.238;2023-08-24T20:21:32;22.63;67.93
6930;DHT22;3504;52.616;13.238;2023-08-24T20:26:33;22.59;67.92
6930;DHT22;3504;52.616;13.238;2023-08-24T20:31:33;22.60;67.95
6930;DHT22;3504;52.616;13.238;2023-08-24T20:36:34;22.55;67.94
6930;DHT22;3504;52.616;13.238;2023-08-24T20:41:34;22.52;68.13
6930;DHT22;3504;52.616;13.238;2023-08-24T20:46:35;22.50;68.26
6930;DHT22;3504;52.616;13.238;2023-08-24T20:51:35;22.47;68.37
6930;DHT22;3504;52.616;13.238;2023-08-24T20:56:36;22.47;67.37
6930;DHT22;3504;52.616;13.238;2023-08-24T21:01:37;22.49;66.74
6930;DHT22;3504;52.616;13.238;2023-08-24T21:06:37;22.50;66.66
6930;DHT22;3504;52.616;13.238;2023-08-24T21:11:38;22.52;66.14
6930;DHT22;3504;52.616;13.238;2023-08-24T21:16:38;22.53;65.95
6930;DHT22;3504;52.616;13.238;2023-08-24T21:21:39;22.53;66.42
6930;DHT22;3504;52.616;13.238;2023-08-24T21:26:40;22.53;66.39
6930;DHT22;3504;52.616;13.238;2023-08-24T21:31:40;22.52;66.87
6930;DHT22;3504;52.616;13.238;2023-08-24T21:36:40;22.47;67.37
6930;DHT22;3504;52.616;13.238;2023-08-24T21:41:41;22.49;66.99
6930;DHT22;3504;52.616;13.238;2023-08-24T21:46:41;22.46;67.64
6930;DHT22;3504;52.616;13.238;2023-08-24T21:51:42;22.43;67.49
6930;DHT22;3504;52.616;13.238;2023-08-24T21:56:43;22.44;67.07
6930;DHT22;3504;52.616;13.238;2023-08-24T22:01:43;22.44;67.03
6930;DHT22;3504;52.616;13.238;2023-08-24T22:06:44;22.43;67.18
6930;DHT22;3504;52.616;13.238;2023-08-24T22:11:45;22.40;68.05
6930;DHT22;3504;52.616;13.238;2023-08-24T22:16:45;22.36;67.87
6930;DHT22;3504;52.616;13.238;2023-08-24T22:21:46;22.37;67.27
6930;DHT22;3504;52.616;13.238;2023-08-24T22:26:46;22.37;67.03
6930;DHT22;3504;52.616;13.238;2023-08-24T22:31:47;22.37;66.70
6930;DHT22;3504;52.616;13.238;2023-08-24T22:36:47;22.35;67.01
6930;DHT22;3504;52.616;13.238;2023-08-24T22:41:48;22.35;66.55
6930;DHT22;3504;52.616;13.238;2023-08-24T22:46:48;22.39;66.44
6930;DHT22;3504;52.616;13.238;2023-08-24T22:51:49;22.41;65.95
6930;DHT22;3504;52.616;13.238;2023-08-24T22:56:49;22.43;65.53
6930;DHT22;3504;52.616;13.238;2023-08-24T23:01:50;22.43;65.35
6930;DHT22;3504;52.616;13.238;2023-08-24T23:11:56;22.46;64.85
6930;DHT22;3504;52.616;13.238;2023-08-24T23:16:59;22.44;65.18
6930;DHT22;3504;52.616;13.238;2023-08-24T23:22:01;22.47;64.60
6930;DHT22;3504;52.616;13.238;2023-08-24T23:27:01;22.52;64.50
6930;DHT22;3504;52.616;13.238;2023-08-24T23:32:02;22.47;65.42
6930;DHT22;3504;52.616;13.238;2023-08-24T23:37:04;22.44;67.07
6930;DHT22;3504;52.616;13.238;2023-08-24T23:42:05;22.36;70.19
6930;DHT22;3504;52.616;13.238;2023-08-24T23:47:10;22.15;70.68
6930;DHT22;3504;52.616;13.238;2023-08-24T23:52:10;22.04;72.05
6930;DHT22;3504;52.616;13.238;2023-08-24T23:57:11;21.82;74.64
